createdAt,value
2019-01-03T00:02:11.125Z,98384.68
2019-01-03T00:05:04.846Z,98385.05
2019-01-03T00:07:54.247Z,98381.52
2019-01-03T00:10:45.325Z,98389.97
2019-01-03T00:13:34.944Z,98383.48
2019-01-03T00:16:40.922Z,98384.86
2019-01-03T00:19:29.508Z,98382.86
2019-01-03T00:22:18.699Z,98391.05
2019-01-03T00:25:18.182Z,98391.50
2019-01-03T00:28:20.703Z,98398.13
2019-01-03T00:31:10.111Z,98397.23
2019-01-03T00:34:10.152Z,98392.78
2019-01-03T00:37:09.805Z,98391.01
2019-01-03T00:39:48.034Z,98393.22
2019-01-03T00:42:47.900Z,98382.80
2019-01-03T00:45:37.045Z,98394.38
2019-01-03T00:48:26.471Z,98392.99
2019-01-03T00:51:15.748Z,98403.55
2019-01-03T00:54:06.418Z,98395.26
2019-01-03T00:57:12.286Z,98411.52
2019-01-03T01:00:01.392Z,98416.44
2019-01-03T01:03:00.282Z,98419.73
2019-01-03T01:05:50.953Z,98424.17
2019-01-03T01:08:53.782Z,98427.18
2019-01-03T01:11:56.711Z,98425.64
2019-01-03T01:14:52.550Z,98432.88
2019-01-03T01:17:44.173Z,98439.44
2019-01-03T01:20:32.670Z,98445.22
2019-01-03T01:23:21.798Z,98446.66
2019-01-03T01:26:12.489Z,98452.13
2019-01-03T01:29:01.792Z,98449.08
2019-01-03T01:31:58.318Z,98460.80
2019-01-03T01:34:49.422Z,98458.34
2019-01-03T01:37:42.559Z,98464.20
2019-01-03T01:40:24.316Z,98463.00
2019-01-03T01:43:25.290Z,98469.72
2019-01-03T01:46:16.209Z,98464.95
2019-01-03T01:49:13.026Z,98469.64
2019-01-03T01:52:08.271Z,98476.95
2019-01-03T01:55:17.238Z,98475.44
2019-01-03T01:58:06.650Z,98477.93
2019-01-03T02:01:01.391Z,98476.84
2019-01-03T02:03:56.058Z,98472.83
2019-01-03T02:06:45.187Z,98482.75
2019-01-03T02:09:39.085Z,98480.83
2019-01-03T02:12:36.022Z,98481.58
2019-01-03T02:15:42.129Z,98479.25
2019-01-03T02:18:31.238Z,98477.02
2019-01-03T02:21:35.972Z,98475.39
2019-01-03T02:24:22.122Z,98487.80
2019-01-03T02:27:12.871Z,98488.03
2019-01-03T02:30:04.963Z,98483.38
2019-01-03T02:33:02.495Z,98485.98
2019-01-03T02:36:02.303Z,98488.13
2019-01-03T02:38:55.980Z,98487.65
2019-01-03T02:41:48.845Z,98483.87
2019-01-03T02:44:49.067Z,98481.75
2019-01-03T02:47:38.192Z,98484.60
2019-01-03T02:50:21.132Z,98483.64
2019-01-03T02:53:10.908Z,98481.28
2019-01-03T02:56:00.244Z,98480.61
2019-01-03T02:58:46.243Z,98476.34
2019-01-03T03:01:36.979Z,98475.73
2019-01-03T03:04:26.447Z,98470.70
2019-01-03T03:07:26.274Z,98475.00
2019-01-03T03:10:26.040Z,98470.12
2019-01-03T03:13:15.866Z,98465.79
2019-01-03T03:16:09.644Z,98470.97
2019-01-03T03:18:59.938Z,98469.31
2019-01-03T03:21:42.582Z,98472.91
2019-01-03T03:24:39.455Z,98468.92
2019-01-03T03:27:28.930Z,98472.45
2019-01-03T03:30:22.418Z,98465.70
2019-01-03T03:33:09.357Z,98466.56
2019-01-03T03:36:01.560Z,98467.89
2019-01-03T03:39:01.157Z,98464.67
2019-01-03T03:41:52.302Z,98453.30
2019-01-03T03:44:57.955Z,98450.77
2019-01-03T03:47:47.373Z,98443.88
2019-01-03T03:50:41.463Z,98440.04
2019-01-03T03:53:32.131Z,98443.56
2019-01-03T03:56:31.563Z,98434.92
2019-01-03T03:59:22.238Z,98442.14
2019-01-03T04:02:22.229Z,98442.70
2019-01-03T04:05:11.590Z,98441.43
2019-01-03T04:08:01.649Z,98443.79
2019-01-03T04:10:50.872Z,98444.49
2019-01-03T04:13:49.884Z,98446.69
2019-01-03T04:16:43.376Z,98445.09
2019-01-03T04:19:43.358Z,98440.02
2019-01-03T04:22:34.358Z,98434.45
2019-01-03T04:25:30.737Z,98434.78
2019-01-03T04:28:19.905Z,98436.67
2019-01-03T04:31:09.398Z,98435.33
2019-01-03T04:34:09.201Z,98440.95
2019-01-03T04:37:00.752Z,98432.98
2019-01-03T04:39:58.685Z,98425.16
2019-01-03T04:42:48.015Z,98430.70
2019-01-03T04:45:32.470Z,98436.16
2019-01-03T04:48:21.794Z,98439.20
2019-01-03T04:51:10.951Z,98443.80
2019-01-03T04:54:00.538Z,98445.68
2019-01-03T04:56:57.303Z,98437.87
2019-01-03T04:59:56.868Z,98447.36
2019-01-03T05:02:45.963Z,98442.98
2019-01-03T05:05:51.336Z,98442.15
2019-01-03T05:08:53.191Z,98441.31
2019-01-03T05:11:58.912Z,98444.75
2019-01-03T05:14:52.462Z,98445.16
2019-01-03T05:17:41.565Z,98445.22
2019-01-03T05:20:41.406Z,98445.16
2019-01-03T05:23:31.006Z,98446.03
2019-01-03T05:26:20.662Z,98449.66
2019-01-03T05:29:09.721Z,98459.92
2019-01-03T05:31:59.500Z,98458.22
2019-01-03T05:34:48.773Z,98453.56
2019-01-03T05:37:37.972Z,98455.87
2019-01-03T05:40:35.957Z,98455.50
2019-01-03T05:43:34.739Z,98454.98
2019-01-03T05:46:33.061Z,98457.55
2019-01-03T05:49:32.625Z,98461.76
2019-01-03T05:52:38.541Z,98455.82
2019-01-03T05:55:27.583Z,98462.26
2019-01-03T05:58:15.265Z,98460.13
2019-01-03T06:01:04.865Z,98457.57
2019-01-03T06:03:58.393Z,98463.09
2019-01-03T06:06:58.108Z,98468.22
2019-01-03T06:09:54.831Z,98469.95
2019-01-03T06:12:41.796Z,98470.44
2019-01-03T06:15:35.698Z,98483.30
2019-01-03T06:18:27.027Z,98485.91
2019-01-03T06:21:32.756Z,98482.48
2019-01-03T06:24:21.940Z,98489.83
2019-01-03T06:27:16.171Z,98480.00
2019-01-03T06:30:05.520Z,98489.42
2019-01-03T06:32:53.040Z,98488.55
2019-01-03T06:35:57.444Z,98494.06
2019-01-03T06:38:43.698Z,98499.16
2019-01-03T06:41:34.437Z,98495.75
2019-01-03T06:44:34.584Z,98485.86
2019-01-03T06:47:23.782Z,98482.43
2019-01-03T06:50:13.113Z,98482.58
2019-01-03T06:53:02.193Z,98488.70
2019-01-03T06:56:08.143Z,98490.78
2019-01-03T06:58:57.571Z,98489.55
2019-01-03T07:01:46.940Z,98485.66
2019-01-03T07:04:40.703Z,98495.03
2019-01-03T07:07:29.505Z,98497.13
2019-01-03T07:10:18.848Z,98503.67
2019-01-03T07:13:12.707Z,98496.75
2019-01-03T07:16:06.704Z,98498.87
2019-01-03T07:19:00.489Z,98502.67
2019-01-03T07:21:49.882Z,98506.52
2019-01-03T07:24:39.111Z,98508.66
2019-01-03T07:27:29.720Z,98497.02
2019-01-03T07:30:29.678Z,98504.73
2019-01-03T07:33:18.873Z,98503.02
2019-01-03T07:36:12.523Z,98505.64
2019-01-03T07:39:03.278Z,98509.06
2019-01-03T07:42:00.127Z,98523.16
2019-01-03T07:44:54.093Z,98532.09
2019-01-03T07:47:49.803Z,98530.86
2019-01-03T07:50:41.044Z,98527.93
2019-01-03T07:53:25.001Z,98533.88
2019-01-03T07:56:15.504Z,98533.02
2019-01-03T07:59:06.183Z,98543.27
2019-01-03T08:01:56.918Z,98548.03
2019-01-03T08:05:02.752Z,98545.84
2019-01-03T08:07:52.866Z,98538.13
2019-01-03T08:10:43.549Z,98542.39
2019-01-03T08:13:31.933Z,98541.50
2019-01-03T08:16:21.169Z,98543.19
2019-01-03T08:19:05.957Z,98536.36
2019-01-03T08:22:09.014Z,98530.80
2019-01-03T08:24:58.239Z,98541.47
2019-01-03T08:27:51.752Z,98539.36
2019-01-03T08:30:39.297Z,98550.02
2019-01-03T08:33:48.164Z,98542.63
2019-01-03T08:36:37.578Z,98545.17
2019-01-03T08:39:27.680Z,98549.80
2019-01-03T08:42:17.788Z,98549.38
2019-01-03T08:45:13.992Z,98549.76
2019-01-03T08:48:22.450Z,98536.55
2019-01-03T08:51:32.839Z,98550.08
2019-01-03T08:54:21.969Z,98544.39
2019-01-03T08:57:05.352Z,98551.38
2019-01-03T08:59:54.836Z,98551.31
2019-01-03T09:02:48.662Z,98545.73
2019-01-03T09:05:51.784Z,98544.38
2019-01-03T09:08:41.065Z,98549.35
2019-01-03T09:11:26.126Z,98552.22
2019-01-03T09:14:31.924Z,98555.14
2019-01-03T09:17:31.731Z,98552.46
2019-01-03T09:20:26.531Z,98552.36
2019-01-03T09:23:15.643Z,98550.60
2019-01-03T09:26:04.701Z,98551.75
2019-01-03T09:28:58.282Z,98555.41
2019-01-03T09:31:47.678Z,98550.33
2019-01-03T09:34:44.326Z,98547.11
2019-01-03T09:37:35.077Z,98552.91
2019-01-03T09:40:41.628Z,98550.92
2019-01-03T09:43:44.226Z,98547.70
2019-01-03T09:46:15.996Z,98552.23
2019-01-03T09:48:47.831Z,98541.34
2019-01-03T09:51:19.702Z,98541.64
2019-01-03T09:53:51.464Z,98539.07
2019-01-03T09:56:23.333Z,98535.63
2019-01-03T09:58:55.162Z,98528.99
2019-01-03T10:01:27.086Z,98526.27
2019-01-03T10:03:58.848Z,98527.38
2019-01-03T10:06:30.695Z,98528.08
2019-01-03T10:09:02.821Z,98527.95
2019-01-03T10:11:34.847Z,98522.83
2019-01-03T10:14:06.877Z,98521.87
2019-01-03T10:16:38.807Z,98527.44
2019-01-03T10:19:11.550Z,98518.23
2019-01-03T10:21:43.650Z,98511.60
2019-01-03T10:24:15.491Z,98514.66
2019-01-03T10:26:47.372Z,98515.80
2019-01-03T10:29:19.295Z,98517.80
2019-01-03T10:31:51.139Z,98515.58
2019-01-03T10:34:23.226Z,98515.65
2019-01-03T10:36:55.057Z,98514.83
2019-01-03T10:39:26.894Z,98522.41
2019-01-03T10:41:58.901Z,98520.81
2019-01-03T10:44:31.919Z,98516.76
2019-01-03T10:47:04.037Z,98516.05
2019-01-03T10:49:37.046Z,98513.31
2019-01-03T10:52:09.102Z,98513.66
2019-01-03T10:54:41.146Z,98510.36
2019-01-03T10:57:15.151Z,98509.51
2019-01-03T10:59:48.394Z,98500.72
2019-01-03T11:02:21.720Z,98496.34
2019-01-03T11:04:53.666Z,98489.01
2019-01-03T11:07:25.609Z,98481.27
2019-01-03T11:09:57.361Z,98471.45
2019-01-03T11:12:37.235Z,98464.31
2019-01-03T11:15:09.321Z,98455.41
2019-01-03T11:17:41.086Z,98456.53
2019-01-03T11:20:13.538Z,98452.77
2019-01-03T11:22:45.667Z,98439.68
2019-01-03T11:25:17.405Z,98438.11
2019-01-03T11:27:49.164Z,98431.17
2019-01-03T11:30:21.040Z,98429.33
2019-01-03T11:32:53.187Z,98424.05
2019-01-03T11:35:25.201Z,98427.04
2019-01-03T11:37:57.271Z,98420.58
2019-01-03T11:40:29.035Z,98417.19
2019-01-03T11:43:00.814Z,98418.00
2019-01-03T11:45:32.912Z,98417.45
2019-01-03T11:48:04.687Z,98412.79
2019-01-03T11:50:36.691Z,98408.39
2019-01-03T11:53:08.744Z,98406.97
2019-01-03T11:55:40.517Z,98392.27
2019-01-03T11:58:12.446Z,98403.63
2019-01-03T12:00:44.272Z,98405.11
2019-01-03T12:03:16.313Z,98401.39
2019-01-03T12:05:48.423Z,98397.52
2019-01-03T12:08:20.317Z,98400.43
2019-01-03T12:10:52.077Z,98397.92
2019-01-03T12:13:23.848Z,98395.09
2019-01-03T12:15:55.618Z,98404.61
2019-01-03T12:18:27.461Z,98400.48
2019-01-03T12:20:59.300Z,98400.88
2019-01-03T12:23:31.073Z,98394.42
2019-01-03T12:26:02.902Z,98392.33
2019-01-03T12:28:34.686Z,98399.63
2019-01-03T12:31:06.479Z,98400.14
2019-01-03T12:33:38.597Z,98397.16
2019-01-03T12:36:11.804Z,98394.20
2019-01-03T12:38:43.650Z,98393.97
2019-01-03T12:41:15.577Z,98390.58
2019-01-03T12:43:47.355Z,98397.48
2019-01-03T12:46:19.137Z,98392.45
2019-01-03T12:48:50.899Z,98383.73
2019-01-03T12:51:22.644Z,98381.80
2019-01-03T12:53:54.553Z,98378.72
2019-01-03T12:56:26.558Z,98375.66
2019-01-03T12:58:58.317Z,98377.59
2019-01-03T13:01:30.148Z,98377.86
2019-01-03T13:04:01.962Z,98379.38
2019-01-03T13:06:33.805Z,98375.02
2019-01-03T13:09:09.653Z,98391.63
2019-01-03T13:11:41.603Z,98391.22
2019-01-03T13:14:13.620Z,98387.42
2019-01-03T13:16:45.794Z,98389.31
2019-01-03T13:19:18.590Z,98394.88
2019-01-03T13:21:50.358Z,98391.41
2019-01-03T13:24:22.305Z,98394.11
2019-01-03T13:26:54.074Z,98391.09
2019-01-03T13:29:25.987Z,98395.96
2019-01-03T13:31:57.745Z,98390.00
2019-01-03T13:34:29.494Z,98387.58
2019-01-03T13:37:01.266Z,98393.11
2019-01-03T13:39:33.356Z,98390.60
2019-01-03T13:42:05.247Z,98392.80
2019-01-03T13:44:37.026Z,98389.81
2019-01-03T13:47:08.853Z,98391.63
2019-01-03T13:49:40.621Z,98395.28
2019-01-03T13:52:12.372Z,98403.73
2019-01-03T13:54:44.330Z,98394.77
2019-01-03T13:57:16.156Z,98390.52
2019-01-03T13:59:47.998Z,98380.17
2019-01-03T14:02:19.798Z,98373.58
2019-01-03T14:04:51.838Z,98375.48
2019-01-03T14:07:23.600Z,98370.30
2019-01-03T14:09:55.769Z,98377.05
2019-01-03T14:12:30.919Z,98376.35
2019-01-03T14:15:02.838Z,98370.09
2019-01-03T14:17:34.602Z,98378.09
2019-01-03T14:20:09.454Z,98373.92
2019-01-03T14:22:41.310Z,98382.33
2019-01-03T14:25:13.325Z,98380.31
2019-01-03T14:27:45.417Z,98382.70
2019-01-03T14:30:17.178Z,98383.70
2019-01-03T14:32:48.931Z,98377.64
2019-01-03T14:35:20.824Z,98386.73
2019-01-03T14:37:52.982Z,98389.31
2019-01-03T14:40:24.902Z,98389.75
2019-01-03T14:42:56.655Z,98376.59
2019-01-03T14:45:28.507Z,98381.86
2019-01-03T14:48:00.267Z,98387.66
2019-01-03T14:50:32.191Z,98375.87
2019-01-03T14:53:04.031Z,98387.02
2019-01-03T14:55:36.036Z,98383.80
2019-01-03T14:58:07.796Z,98376.63
2019-01-03T15:00:39.650Z,98386.03
2019-01-03T15:03:11.410Z,98380.03
2019-01-03T15:05:43.176Z,98372.57
2019-01-03T15:08:15.345Z,98379.39
2019-01-03T15:10:47.112Z,98383.27
2019-01-03T15:13:18.890Z,98382.85
2019-01-03T15:15:50.657Z,98383.62
2019-01-03T15:18:22.425Z,98378.05
2019-01-03T15:20:54.266Z,98381.96
2019-01-03T15:23:26.090Z,98380.87
2019-01-03T15:25:57.864Z,98385.13
2019-01-03T15:28:29.634Z,98390.81
2019-01-03T15:31:01.408Z,98388.81
2019-01-03T15:33:33.324Z,98381.41
2019-01-03T15:36:05.257Z,98390.88
2019-01-03T15:38:37.027Z,98387.97
2019-01-03T15:41:08.884Z,98388.78
2019-01-03T15:43:40.676Z,98393.47
2019-01-03T15:46:12.464Z,98396.30
2019-01-03T15:48:44.224Z,98389.88
2019-01-03T15:51:16.123Z,98397.97
2019-01-03T15:53:47.921Z,98398.97
2019-01-03T15:56:19.975Z,98398.18
2019-01-03T15:58:51.734Z,98395.37
2019-01-03T16:01:23.491Z,98397.88
2019-01-03T16:03:55.395Z,98394.48
2019-01-03T16:06:27.170Z,98391.89
2019-01-03T16:08:59.000Z,98388.95
2019-01-03T16:11:30.841Z,98385.99
2019-01-03T16:14:02.604Z,98392.05
2019-01-03T16:16:34.380Z,98391.88
2019-01-03T16:19:06.241Z,98392.89
2019-01-03T16:21:38.360Z,98396.96
2019-01-03T16:24:10.200Z,98396.55
2019-01-03T16:26:41.975Z,98396.55
2019-01-03T16:29:13.737Z,98394.05
2019-01-03T16:31:45.586Z,98397.92
2019-01-03T16:34:17.383Z,98392.83
2019-01-03T16:36:49.557Z,98395.91
2019-01-03T16:39:21.351Z,98396.63
2019-01-03T16:41:53.125Z,98396.16
2019-01-03T16:44:24.904Z,98391.58
2019-01-03T16:46:57.017Z,98390.88
2019-01-03T16:49:28.963Z,98389.29
2019-01-03T16:52:00.820Z,98387.77
2019-01-03T16:54:32.739Z,98386.92
2019-01-03T16:57:04.595Z,98382.94
2019-01-03T16:59:36.437Z,98383.34
2019-01-03T17:02:08.284Z,98380.58
2019-01-03T17:04:40.052Z,98382.80
2019-01-03T17:07:12.181Z,98394.23
2019-01-03T17:09:44.018Z,98388.25
2019-01-03T17:12:15.875Z,98394.45
2019-01-03T17:14:47.652Z,98391.38
2019-01-03T17:17:19.419Z,98392.48
2019-01-03T17:19:51.264Z,98392.31
2019-01-03T17:22:23.108Z,98391.53
2019-01-03T17:24:54.945Z,98395.01
2019-01-03T17:27:26.732Z,98393.27
2019-01-03T17:29:58.496Z,98400.21
2019-01-03T17:32:30.354Z,98397.02
2019-01-03T17:35:02.382Z,98404.42
2019-01-03T17:37:34.427Z,98406.95
2019-01-03T17:40:08.221Z,98400.75
2019-01-03T17:42:40.410Z,98406.02
2019-01-03T17:45:12.364Z,98407.24
2019-01-03T17:47:44.206Z,98414.14
2019-01-03T17:50:17.088Z,98413.33
2019-01-03T17:52:48.938Z,98412.97
2019-01-03T17:55:20.781Z,98414.74
2019-01-03T17:57:52.621Z,98414.31
2019-01-03T18:00:24.730Z,98411.83
2019-01-03T18:02:56.592Z,98414.09
2019-01-03T18:05:28.363Z,98417.03
2019-01-03T18:08:00.206Z,98418.32
2019-01-03T18:10:32.059Z,98417.84
2019-01-03T18:13:04.293Z,98419.91
2019-01-03T18:15:36.217Z,98419.62
2019-01-03T18:18:08.320Z,98421.20
2019-01-03T18:20:40.419Z,98426.03
2019-01-03T18:23:12.300Z,98419.18
2019-01-03T18:25:44.286Z,98415.59
2019-01-03T18:28:16.069Z,98422.81
2019-01-03T18:30:47.831Z,98426.48
2019-01-03T18:33:19.768Z,98425.05
2019-01-03T18:35:51.963Z,98426.67
2019-01-03T18:38:23.737Z,98426.08
2019-01-03T18:40:55.756Z,98423.30
2019-01-03T18:43:27.623Z,98428.02
2019-01-03T18:45:59.751Z,98430.01
2019-01-03T18:48:31.793Z,98434.14
2019-01-03T18:51:03.579Z,98430.87
2019-01-03T18:53:35.372Z,98431.80
2019-01-03T18:56:07.662Z,98433.83
2019-01-03T18:58:39.781Z,98433.56
2019-01-03T19:01:11.810Z,98425.13
2019-01-03T19:03:43.656Z,98428.59
2019-01-03T19:06:15.525Z,98432.11
2019-01-03T19:08:47.379Z,98435.17
2019-01-03T19:11:19.158Z,98439.98
2019-01-03T19:13:50.951Z,98438.69
2019-01-03T19:16:23.092Z,98435.31
2019-01-03T19:18:55.141Z,98435.70
2019-01-03T19:21:26.987Z,98429.58
2019-01-03T19:23:58.777Z,98423.34
2019-01-03T19:26:30.667Z,98422.86
2019-01-03T19:29:02.454Z,98419.98
2019-01-03T19:31:34.309Z,98420.52
2019-01-03T19:34:07.008Z,98422.08
2019-01-03T19:36:39.150Z,98417.84
2019-01-03T19:39:11.382Z,98424.19
2019-01-03T19:41:43.411Z,98419.50
2019-01-03T19:44:15.396Z,98418.82
2019-01-03T19:46:47.176Z,98416.61
2019-01-03T19:49:19.047Z,98415.97
2019-01-03T19:51:50.921Z,98415.15
2019-01-03T19:54:22.734Z,98429.14
2019-01-03T19:56:54.588Z,98426.39
2019-01-03T19:59:26.391Z,98425.06
2019-01-03T20:02:04.038Z,98426.20
2019-01-03T20:04:36.429Z,98427.39
2019-01-03T20:07:09.700Z,98427.73
2019-01-03T20:09:42.381Z,98430.70
2019-01-03T20:12:15.133Z,98424.83
2019-01-03T20:14:47.448Z,98431.05
2019-01-03T20:17:19.826Z,98422.74
2019-01-03T20:19:52.194Z,98421.02
2019-01-03T20:22:24.626Z,98425.91
2019-01-03T20:24:57.130Z,98427.98
2019-01-03T20:27:29.571Z,98420.38
2019-01-03T20:30:02.252Z,98416.98
2019-01-03T20:32:34.598Z,98432.56
2019-01-03T20:35:06.925Z,98429.03
2019-01-03T20:37:39.675Z,98418.92
2019-01-03T20:40:12.086Z,98424.94
2019-01-03T20:42:44.705Z,98412.88
2019-01-03T20:45:17.385Z,98411.69
2019-01-03T20:47:50.213Z,98412.29
2019-01-03T20:50:22.913Z,98412.06
2019-01-03T20:52:55.226Z,98414.53
2019-01-03T20:55:28.108Z,98411.21
2019-01-03T20:58:00.495Z,98413.14
2019-01-03T21:00:34.245Z,98409.20
2019-01-03T21:03:06.626Z,98402.35
2019-01-03T21:05:40.155Z,98401.33
2019-01-03T21:08:12.231Z,98399.91
2019-01-03T21:10:44.360Z,98395.41
2019-01-03T21:13:16.207Z,98403.66
2019-01-03T21:15:48.238Z,98400.22
2019-01-03T21:18:20.503Z,98406.67
2019-01-03T21:20:52.678Z,98412.00
2019-01-03T21:23:24.586Z,98412.23
2019-01-03T21:25:56.540Z,98413.74
2019-01-03T21:28:28.583Z,98415.84
2019-01-03T21:31:00.644Z,98421.41
2019-01-03T21:33:32.583Z,98418.84
2019-01-03T21:36:04.593Z,98421.86
2019-01-03T21:38:36.807Z,98425.67
2019-01-03T21:41:09.055Z,98426.59
2019-01-03T21:43:40.923Z,98430.77
2019-01-03T21:46:12.759Z,98429.24
2019-01-03T21:48:44.558Z,98433.52
2019-01-03T21:51:16.784Z,98433.89
2019-01-03T21:53:48.819Z,98445.61
2019-01-03T21:56:20.980Z,98452.67
2019-01-03T21:58:52.835Z,98442.08
2019-01-03T22:01:24.780Z,98444.31
2019-01-03T22:03:56.636Z,98441.83
2019-01-03T22:06:28.535Z,98450.77
2019-01-03T22:09:00.380Z,98450.43
2019-01-03T22:11:32.204Z,98455.52
2019-01-03T22:14:05.060Z,98450.25
2019-01-03T22:16:36.942Z,98447.32
2019-01-03T22:19:09.811Z,98447.66
2019-01-03T22:21:41.740Z,98448.77
2019-01-03T22:24:13.529Z,98450.50
2019-01-03T22:26:45.360Z,98446.40
2019-01-03T22:29:17.253Z,98452.08
2019-01-03T22:31:49.247Z,98445.95
2019-01-03T22:34:21.078Z,98444.05
2019-01-03T22:36:53.058Z,98440.64
2019-01-03T22:39:24.840Z,98443.30
2019-01-03T22:41:56.986Z,98437.98
2019-01-03T22:44:29.139Z,98436.59
2019-01-03T22:47:01.057Z,98428.98
2019-01-03T22:49:33.049Z,98444.70
2019-01-03T22:52:04.890Z,98436.95
2019-01-03T22:54:36.861Z,98439.50
2019-01-03T22:57:08.846Z,98436.41
2019-01-03T22:59:41.012Z,98439.80
2019-01-03T23:02:13.111Z,98445.25
2019-01-03T23:04:49.151Z,98443.81
2019-01-03T23:07:18.947Z,98442.64
2019-01-03T23:09:50.863Z,98454.70
2019-01-03T23:12:22.862Z,98454.14
2019-01-03T23:14:54.929Z,98461.91
2019-01-03T23:17:26.827Z,98453.75
2019-01-03T23:19:58.659Z,98447.22
2019-01-03T23:22:30.870Z,98450.05
2019-01-03T23:25:02.752Z,98446.30
2019-01-03T23:27:34.755Z,98453.64
2019-01-03T23:30:07.987Z,98462.79
2019-01-03T23:32:39.986Z,98465.48
2019-01-03T23:35:11.970Z,98473.83
2019-01-03T23:37:43.959Z,98469.33
2019-01-03T23:40:15.940Z,98471.55
2019-01-03T23:42:47.871Z,98461.28
2019-01-03T23:45:24.413Z,98462.91
2019-01-03T23:48:01.084Z,98460.39
2019-01-03T23:50:37.248Z,98459.70
2019-01-03T23:53:09.468Z,98456.59
2019-01-03T23:55:46.827Z,98457.08
2019-01-03T23:58:18.846Z,98460.39
